createdAt,value
2022-12-24T00:01:20.411Z,21.13
2022-12-24T00:04:02.101Z,21.11
2022-12-24T00:06:34.401Z,21.11
2022-12-24T00:12:10.532Z,20.77
2022-12-24T00:14:59.045Z,21.11
2022-12-24T00:17:33.312Z,20.98
2022-12-24T00:20:10.180Z,20.94
2022-12-24T00:22:42.229Z,21.03
2022-12-24T00:25:15.644Z,20.85
2022-12-24T00:27:57.319Z,20.97
2022-12-24T00:30:31.137Z,20.99
2022-12-24T00:33:00.186Z,21.10
2022-12-24T00:35:30.200Z,21.04
2022-12-24T00:38:05.096Z,21.09
2022-12-24T00:40:38.265Z,21.11
2022-12-24T00:43:17.996Z,21.12
2022-12-24T00:45:58.034Z,21.09
2022-12-24T00:48:36.474Z,21.07
2022-12-24T00:51:07.904Z,21.03
2022-12-24T00:53:45.600Z,21.09
2022-12-24T00:56:14.018Z,21.05
2022-12-24T00:58:47.283Z,20.81
2022-12-24T01:01:15.852Z,20.82
2022-12-24T01:03:46.800Z,20.84
2022-12-24T01:06:15.324Z,20.82
2022-12-24T01:08:47.991Z,20.72
2022-12-24T01:11:15.145Z,20.70
2022-12-24T01:13:42.609Z,20.77
2022-12-24T01:16:21.046Z,20.70
2022-12-24T01:18:49.906Z,20.72
2022-12-24T01:21:26.878Z,20.68
2022-12-24T01:23:59.154Z,20.64
2022-12-24T01:26:26.524Z,20.69
2022-12-24T01:28:58.772Z,20.68
2022-12-24T01:31:30.928Z,20.76
2022-12-24T01:34:03.614Z,20.69
2022-12-24T01:36:32.481Z,20.71
2022-12-24T01:39:00.495Z,20.80
2022-12-24T01:41:46.061Z,20.71
2022-12-24T01:44:33.428Z,20.80
2022-12-24T01:47:21.446Z,20.78
2022-12-24T01:49:53.284Z,20.75
2022-12-24T01:52:22.994Z,20.72
2022-12-24T01:54:51.593Z,20.61
2022-12-24T01:57:33.948Z,20.62
2022-12-24T02:00:06.306Z,20.60
2022-12-24T02:02:36.228Z,20.67
2022-12-24T02:05:24.435Z,20.69
2022-12-24T02:07:54.147Z,20.69
2022-12-24T02:10:22.751Z,20.64
2022-12-24T02:12:50.893Z,20.66
2022-12-24T02:15:19.851Z,20.68
2022-12-24T02:18:08.951Z,20.60
2022-12-24T02:20:50.639Z,20.53
2022-12-24T02:23:17.886Z,20.64
2022-12-24T02:25:52.295Z,20.59
2022-12-24T02:28:21.500Z,20.60
2022-12-24T02:30:56.342Z,20.55
2022-12-24T02:33:41.991Z,20.64
2022-12-24T02:36:18.970Z,20.49
2022-12-24T02:38:53.869Z,20.40
2022-12-24T02:42:06.944Z,20.31
2022-12-24T02:44:46.479Z,19.98
2022-12-24T02:47:18.021Z,20.21
2022-12-24T02:49:46.454Z,20.20
2022-12-24T02:52:32.714Z,20.16
2022-12-24T02:55:08.466Z,20.20
2022-12-24T02:57:49.442Z,20.19
2022-12-24T03:00:21.008Z,20.37
2022-12-24T03:03:12.913Z,20.35
2022-12-24T03:05:50.366Z,20.45
2022-12-24T03:08:25.542Z,20.31
2022-12-24T03:11:01.538Z,19.95
2022-12-24T03:13:56.536Z,20.29
2022-12-24T03:16:30.088Z,20.49
2022-12-24T03:19:03.322Z,20.43
2022-12-24T03:21:43.608Z,20.35
2022-12-24T03:24:14.208Z,20.21
2022-12-24T03:26:45.148Z,20.24
2022-12-24T03:29:14.734Z,20.24
2022-12-24T03:31:46.424Z,20.30
2022-12-24T03:34:20.081Z,19.89
2022-12-24T03:36:49.385Z,19.88
2022-12-24T03:39:20.390Z,20.09
2022-12-24T03:41:47.828Z,20.05
2022-12-24T03:44:15.001Z,20.08
2022-12-24T03:46:42.405Z,20.01
2022-12-24T03:49:10.783Z,20.06
2022-12-24T03:51:37.911Z,20.24
2022-12-24T03:54:04.985Z,20.16
2022-12-24T03:56:32.058Z,20.28
2022-12-24T03:59:02.854Z,20.12
2022-12-24T04:01:32.025Z,20.00
2022-12-24T04:03:59.332Z,20.05
2022-12-24T04:06:26.735Z,19.95
2022-12-24T04:08:56.763Z,19.96
2022-12-24T04:11:23.839Z,19.97
2022-12-24T04:13:50.924Z,20.13
2022-12-24T04:16:21.083Z,20.01
2022-12-24T04:18:50.021Z,19.92
2022-12-24T04:21:25.812Z,19.97
2022-12-24T04:23:55.291Z,19.90
2022-12-24T04:26:22.612Z,19.96
2022-12-24T04:29:00.786Z,19.75
2022-12-24T04:31:29.403Z,19.57
2022-12-24T04:33:58.799Z,19.90
2022-12-24T04:36:25.789Z,19.87
2022-12-24T04:38:56.403Z,19.75
2022-12-24T04:41:27.487Z,19.49
2022-12-24T04:43:57.789Z,19.67
2022-12-24T04:46:34.882Z,19.59
2022-12-24T04:49:12.948Z,19.50
2022-12-24T04:52:10.439Z,19.59
2022-12-24T04:54:47.023Z,19.49
2022-12-24T04:57:19.602Z,19.56
2022-12-24T05:00:03.467Z,19.78
2022-12-24T05:02:35.148Z,19.67
2022-12-24T05:05:06.173Z,19.53
2022-12-24T05:07:35.577Z,19.42
2022-12-24T05:10:05.692Z,19.32
2022-12-24T05:12:33.946Z,19.37
2022-12-24T05:15:06.349Z,19.24
2022-12-24T05:17:35.728Z,19.29
2022-12-24T05:20:04.277Z,19.32
2022-12-24T05:22:49.816Z,19.33
2022-12-24T05:25:37.036Z,19.35
2022-12-24T05:28:04.102Z,19.20
2022-12-24T05:30:34.991Z,19.22
2022-12-24T05:33:07.280Z,19.20
2022-12-24T05:35:39.636Z,19.14
2022-12-24T05:38:11.224Z,19.08
2022-12-24T05:40:39.041Z,19.01
2022-12-24T05:43:06.179Z,18.85
2022-12-24T05:45:38.065Z,18.89
2022-12-24T05:48:09.161Z,18.94
2022-12-24T05:50:45.394Z,18.79
2022-12-24T05:53:29.880Z,19.04
2022-12-24T05:56:10.419Z,18.99
2022-12-24T05:58:43.849Z,18.88
2022-12-24T06:01:13.247Z,19.10
2022-12-24T06:03:44.699Z,19.08
2022-12-24T06:06:28.608Z,19.02
2022-12-24T06:09:06.541Z,19.00
2022-12-24T06:11:33.876Z,19.14
2022-12-24T06:14:09.381Z,19.07
2022-12-24T06:16:36.592Z,18.90
2022-12-24T06:19:03.986Z,18.88
2022-12-24T06:21:34.418Z,18.96
2022-12-24T06:24:04.283Z,18.91
2022-12-24T06:26:37.430Z,18.68
2022-12-24T06:29:13.830Z,18.84
2022-12-24T06:31:47.075Z,18.82
2022-12-24T06:34:16.059Z,18.89
2022-12-24T06:36:52.982Z,18.81
2022-12-24T06:39:30.611Z,18.66
2022-12-24T06:42:28.827Z,18.56
2022-12-24T06:45:07.802Z,18.79
2022-12-24T06:47:52.600Z,18.73
2022-12-24T06:50:20.290Z,18.83
2022-12-24T06:52:47.750Z,18.87
2022-12-24T06:55:24.644Z,18.72
2022-12-24T06:57:59.943Z,18.55
2022-12-24T07:00:30.918Z,18.61
2022-12-24T07:03:12.059Z,18.45
2022-12-24T07:06:06.212Z,18.49
2022-12-24T07:11:22.297Z,18.41
2022-12-24T07:13:58.645Z,18.16
2022-12-24T07:17:18.953Z,18.29
2022-12-24T07:19:46.222Z,18.54
2022-12-24T07:22:15.720Z,18.43
2022-12-24T07:24:43.475Z,18.54
2022-12-24T07:27:12.786Z,18.58
2022-12-24T07:29:42.208Z,18.41
2022-12-24T07:32:09.495Z,18.46
2022-12-24T07:34:39.050Z,18.58
2022-12-24T07:37:09.944Z,18.46
2022-12-24T07:39:37.014Z,18.54
2022-12-24T07:42:05.815Z,18.63
2022-12-24T07:44:32.835Z,18.49
2022-12-24T07:47:02.568Z,18.38
2022-12-24T07:49:31.673Z,18.49
2022-12-24T07:51:58.839Z,18.56
2022-12-24T07:54:25.952Z,18.57
2022-12-24T07:56:52.901Z,18.57
2022-12-24T07:59:19.935Z,18.64
2022-12-24T08:01:47.445Z,18.89
2022-12-24T08:04:17.671Z,18.76
2022-12-24T08:06:44.647Z,18.94
2022-12-24T08:09:15.748Z,18.80
2022-12-24T08:11:49.707Z,18.78
2022-12-24T08:14:18.996Z,18.83
2022-12-24T08:16:48.471Z,18.86
2022-12-24T08:19:16.938Z,18.59
2022-12-24T08:21:46.647Z,18.83
2022-12-24T08:24:13.873Z,18.94
2022-12-24T08:26:43.379Z,19.10
2022-12-24T08:29:10.407Z,18.61
2022-12-24T08:31:40.388Z,18.88
2022-12-24T08:34:11.127Z,19.03
2022-12-24T08:36:41.400Z,19.03
2022-12-24T08:39:11.409Z,19.21
2022-12-24T08:41:41.548Z,18.08
2022-12-24T08:44:11.536Z,18.87
2022-12-24T08:49:19.504Z,19.43
2022-12-24T08:51:52.267Z,19.43
2022-12-24T08:54:28.842Z,19.62
2022-12-24T08:56:59.355Z,19.79
2022-12-24T08:59:27.405Z,20.02
2022-12-24T09:01:58.095Z,20.02
2022-12-24T09:04:34.860Z,20.39
2022-12-24T09:07:02.100Z,20.55
2022-12-24T09:09:32.726Z,20.75
2022-12-24T09:12:05.709Z,20.84
2022-12-24T09:14:38.618Z,20.98
2022-12-24T09:17:09.580Z,21.06
2022-12-24T09:19:39.468Z,21.29
2022-12-24T09:22:06.898Z,21.40
2022-12-24T09:24:38.254Z,21.62
2022-12-24T09:27:06.524Z,21.82
2022-12-24T09:29:35.575Z,22.10
2022-12-24T09:32:05.726Z,22.54
2022-12-24T09:34:35.811Z,22.86
2022-12-24T09:37:07.848Z,22.94
2022-12-24T09:39:40.506Z,23.01
2022-12-24T09:42:16.468Z,23.24
2022-12-24T09:45:04.722Z,23.47
2022-12-24T09:47:53.003Z,23.66
2022-12-24T09:50:35.946Z,24.11
2022-12-24T09:53:24.795Z,24.46
2022-12-24T09:56:04.233Z,24.88
2022-12-24T10:05:18.620Z,25.31
2022-12-24T10:07:56.719Z,25.41
2022-12-24T10:10:34.005Z,25.43
2022-12-24T10:13:24.754Z,25.22
2022-12-24T10:16:00.842Z,26.05
2022-12-24T10:18:44.227Z,26.51
2022-12-24T10:21:34.057Z,26.97
2022-12-24T10:24:16.983Z,27.55
2022-12-24T10:26:51.114Z,27.14
2022-12-24T10:29:21.437Z,28.06
2022-12-24T10:32:11.723Z,27.78
2022-12-24T10:34:52.498Z,28.47
2022-12-24T10:37:25.880Z,28.47
2022-12-24T10:40:00.938Z,28.68
2022-12-24T10:42:46.299Z,28.77
2022-12-24T10:45:23.468Z,28.60
2022-12-24T10:47:55.163Z,29.58
2022-12-24T10:50:47.235Z,30.20
2022-12-24T10:53:40.949Z,30.46
2022-12-24T10:56:13.873Z,30.93
2022-12-24T10:58:51.552Z,31.02
2022-12-24T11:01:19.054Z,28.35
2022-12-24T11:03:46.455Z,30.13
2022-12-24T11:06:21.465Z,31.12
2022-12-24T11:08:51.530Z,31.68
2022-12-24T11:11:21.269Z,31.90
2022-12-24T11:13:53.296Z,32.56
2022-12-24T11:16:46.287Z,32.08
2022-12-24T11:19:28.361Z,31.48
2022-12-24T11:22:06.410Z,31.44
2022-12-24T11:24:50.246Z,33.20
2022-12-24T11:27:26.111Z,33.47
2022-12-24T11:29:54.486Z,34.73
2022-12-24T11:32:26.982Z,35.28
2022-12-24T11:34:54.914Z,35.70
2022-12-24T11:37:28.452Z,34.91
2022-12-24T11:40:02.774Z,35.21
2022-12-24T11:42:38.749Z,33.73
2022-12-24T11:45:22.777Z,35.40
2022-12-24T11:47:50.113Z,35.92
2022-12-24T11:50:35.952Z,35.70
2022-12-24T11:53:03.116Z,36.58
2022-12-24T11:56:03.778Z,37.03
2022-12-24T11:58:46.109Z,36.29
2022-12-24T12:01:27.940Z,37.39
2022-12-24T12:04:17.761Z,37.88
2022-12-24T12:07:24.194Z,37.92
2022-12-24T12:13:41.037Z,38.06
2022-12-24T12:17:10.654Z,38.65
2022-12-24T12:22:46.554Z,37.30
2022-12-24T12:25:25.840Z,36.12
2022-12-24T12:27:55.234Z,35.90
2022-12-24T12:30:29.057Z,36.14
2022-12-24T12:33:26.098Z,35.98
2022-12-24T12:35:58.970Z,34.33
2022-12-24T12:38:54.106Z,36.02
2022-12-24T12:41:26.784Z,35.09
2022-12-24T12:44:12.564Z,34.59
2022-12-24T12:47:01.578Z,35.53
2022-12-24T12:50:06.502Z,34.18
2022-12-24T12:53:07.434Z,33.36
2022-12-24T12:55:43.080Z,31.57
2022-12-24T12:58:25.626Z,31.41
2022-12-24T13:01:09.880Z,30.70
2022-12-24T13:04:03.999Z,31.54
2022-12-24T13:06:54.533Z,30.20
2022-12-24T13:09:37.482Z,29.37
2022-12-24T13:12:20.112Z,30.92
2022-12-24T13:15:08.827Z,31.44
2022-12-24T13:17:35.912Z,31.18
2022-12-24T13:20:18.479Z,30.53
2022-12-24T13:23:19.130Z,30.90
2022-12-24T13:25:51.307Z,30.67
2022-12-24T13:31:28.413Z,29.63
2022-12-24T13:34:07.598Z,30.05
2022-12-24T13:36:58.096Z,28.98
2022-12-24T13:39:53.858Z,29.34
2022-12-24T13:42:42.206Z,29.21
2022-12-24T13:45:30.960Z,29.11
2022-12-24T13:48:13.473Z,29.90
2022-12-24T13:50:43.800Z,30.21
2022-12-24T13:53:36.383Z,29.10
2022-12-24T13:56:13.403Z,28.36
2022-12-24T13:58:47.350Z,29.07
2022-12-24T14:01:18.093Z,28.61
2022-12-24T14:06:53.323Z,28.30
2022-12-24T14:09:27.707Z,29.56
2022-12-24T14:11:58.163Z,29.42
2022-12-24T14:14:35.848Z,27.80
2022-12-24T14:17:09.545Z,28.35
2022-12-24T14:19:52.606Z,27.02
2022-12-24T14:22:29.618Z,28.50
2022-12-24T14:25:05.884Z,28.13
2022-12-24T14:27:49.742Z,27.35
2022-12-24T14:30:30.657Z,27.94
2022-12-24T14:33:07.467Z,27.85
2022-12-24T14:35:38.987Z,27.69
2022-12-24T14:38:19.298Z,27.17
2022-12-24T14:40:56.563Z,28.10
2022-12-24T14:43:56.061Z,27.11
2022-12-24T14:46:30.388Z,27.65
2022-12-24T14:49:22.837Z,26.67
2022-12-24T14:52:18.409Z,27.16
2022-12-24T14:54:56.091Z,27.77
2022-12-24T14:57:36.376Z,26.56
2022-12-24T15:00:20.565Z,26.63
2022-12-24T15:02:52.334Z,26.60
2022-12-24T15:05:28.907Z,27.04
2022-12-24T15:07:59.436Z,27.54
2022-12-24T15:10:32.504Z,27.43
2022-12-24T15:13:15.870Z,27.50
2022-12-24T15:15:52.037Z,27.02
2022-12-24T15:18:22.949Z,26.47
2022-12-24T15:21:01.985Z,25.57
2022-12-24T15:23:35.969Z,24.79
2022-12-24T15:26:27.817Z,25.25
2022-12-24T15:29:03.396Z,25.09
2022-12-24T15:31:45.889Z,24.83
2022-12-24T15:34:34.026Z,25.31
2022-12-24T15:37:17.035Z,24.39
2022-12-24T15:43:03.516Z,24.14
2022-12-24T15:45:56.561Z,24.71
2022-12-24T15:48:33.278Z,24.60
2022-12-24T15:51:21.219Z,25.01
2022-12-24T15:53:51.009Z,24.56
2022-12-24T15:56:30.395Z,24.89
2022-12-24T15:59:25.810Z,23.71
2022-12-24T16:02:02.348Z,23.20
2022-12-24T16:04:31.870Z,23.25
2022-12-24T16:07:08.230Z,23.53
2022-12-24T16:12:34.160Z,23.68
2022-12-24T16:15:14.956Z,23.61
2022-12-24T16:17:49.575Z,23.42
2022-12-24T16:20:19.083Z,23.37
2022-12-24T16:22:54.223Z,22.66
2022-12-24T16:26:09.168Z,23.39
2022-12-24T16:28:44.713Z,23.25
2022-12-24T16:31:21.118Z,23.11
2022-12-24T16:33:50.790Z,22.62
2022-12-24T16:36:20.233Z,22.51
2022-12-24T16:39:09.062Z,22.80
2022-12-24T16:42:02.797Z,22.31
2022-12-24T16:44:35.035Z,22.44
2022-12-24T16:47:04.822Z,22.35
2022-12-24T16:49:33.618Z,22.63
2022-12-24T16:52:14.497Z,22.93
2022-12-24T16:54:47.467Z,22.78
2022-12-24T16:57:21.785Z,22.60
2022-12-24T17:00:04.278Z,22.69
2022-12-24T17:02:37.680Z,21.99
2022-12-24T17:05:10.340Z,22.05
2022-12-24T17:07:43.720Z,22.36
2022-12-24T17:10:22.366Z,21.94
2022-12-24T17:13:00.392Z,21.99
2022-12-24T17:15:34.213Z,21.80
2022-12-24T17:18:17.736Z,21.93
2022-12-24T17:20:47.905Z,22.01
2022-12-24T17:23:16.542Z,21.65
2022-12-24T17:26:00.459Z,21.62
2022-12-24T17:28:30.987Z,21.64
2022-12-24T17:31:01.365Z,21.72
2022-12-24T17:33:36.169Z,21.51
2022-12-24T17:36:03.924Z,21.46
2022-12-24T17:38:31.187Z,21.54
2022-12-24T17:41:09.466Z,21.74
2022-12-24T17:43:41.203Z,21.61
2022-12-24T17:46:13.750Z,21.50
2022-12-24T17:48:45.858Z,21.63
2022-12-24T17:51:23.551Z,21.24
2022-12-24T17:54:13.409Z,21.42
2022-12-24T17:56:46.012Z,20.98
2022-12-24T17:59:18.049Z,21.27
2022-12-24T18:01:48.456Z,21.55
2022-12-24T18:04:28.553Z,21.58
2022-12-24T18:07:04.658Z,21.69
2022-12-24T18:09:58.176Z,21.80
2022-12-24T18:12:41.192Z,21.61
2022-12-24T18:18:12.973Z,21.74
2022-12-24T18:20:54.602Z,21.86
2022-12-24T18:23:33.716Z,21.93
2022-12-24T18:26:14.030Z,22.01
2022-12-24T18:28:49.417Z,22.03
2022-12-24T18:31:19.472Z,22.03
2022-12-24T18:33:55.173Z,21.98
2022-12-24T18:36:24.096Z,21.94
2022-12-24T18:38:53.903Z,21.56
2022-12-24T18:41:25.981Z,21.84
2022-12-24T18:44:02.748Z,21.90
2022-12-24T18:46:33.974Z,21.85
2022-12-24T18:49:05.100Z,21.93
2022-12-24T18:51:40.178Z,21.86
2022-12-24T18:54:14.170Z,21.90
2022-12-24T18:57:09.917Z,21.93
2022-12-24T18:59:40.961Z,21.94
2022-12-24T19:05:07.978Z,21.91
2022-12-24T19:07:40.710Z,21.92
2022-12-24T19:10:12.535Z,21.87
2022-12-24T19:12:51.312Z,21.84
2022-12-24T19:15:36.132Z,21.85
2022-12-24T19:18:08.527Z,21.83
2022-12-24T19:20:52.144Z,21.78
2022-12-24T19:23:31.676Z,21.79
2022-12-24T19:26:08.617Z,21.62
2022-12-24T19:28:49.756Z,21.38
2022-12-24T19:31:27.572Z,21.54
2022-12-24T19:34:02.923Z,21.57
2022-12-24T19:36:45.097Z,21.52
2022-12-24T19:39:19.922Z,21.56
2022-12-24T19:41:53.754Z,21.60
2022-12-24T19:44:25.480Z,21.54
2022-12-24T19:47:01.684Z,21.43
2022-12-24T19:49:30.868Z,21.45
2022-12-24T19:52:03.140Z,21.50
2022-12-24T19:54:30.677Z,21.51
2022-12-24T19:57:02.427Z,21.49
2022-12-24T19:59:32.500Z,21.46
2022-12-24T20:02:00.344Z,21.38
2022-12-24T20:04:27.557Z,21.44
2022-12-24T20:07:01.077Z,21.28
2022-12-24T20:09:29.042Z,21.21
2022-12-24T20:12:10.784Z,21.03
2022-12-24T20:17:34.251Z,21.15
2022-12-24T20:20:14.289Z,21.18
2022-12-24T20:22:46.489Z,21.24
2022-12-24T20:25:17.397Z,21.25
2022-12-24T20:27:52.414Z,21.25
2022-12-24T20:30:27.193Z,21.12
2022-12-24T20:32:57.655Z,21.04
2022-12-24T20:35:28.968Z,21.00
2022-12-24T20:37:58.410Z,21.09
2022-12-24T20:40:28.861Z,21.01
2022-12-24T20:42:58.561Z,21.08
2022-12-24T20:45:28.209Z,21.04
2022-12-24T20:48:04.380Z,20.93
2022-12-24T20:50:34.452Z,20.81
2022-12-24T20:53:07.636Z,20.79
2022-12-24T20:55:38.762Z,20.86
2022-12-24T20:58:31.042Z,20.73
2022-12-24T21:01:07.705Z,20.79
2022-12-24T21:03:54.455Z,20.85
2022-12-24T21:06:28.102Z,20.73
2022-12-24T21:08:57.724Z,20.52
2022-12-24T21:11:45.485Z,20.57
2022-12-24T21:14:15.095Z,20.64
2022-12-24T21:16:45.271Z,20.66
2022-12-24T21:19:16.336Z,20.60
2022-12-24T21:21:48.394Z,20.51
2022-12-24T21:24:20.146Z,20.64
2022-12-24T21:26:50.441Z,20.55
2022-12-24T21:29:17.673Z,20.56
2022-12-24T21:31:46.717Z,20.59
2022-12-24T21:34:16.137Z,20.62
2022-12-24T21:36:54.228Z,20.51
2022-12-24T21:39:24.027Z,20.48
2022-12-24T21:41:58.265Z,20.57
2022-12-24T21:44:25.328Z,20.47
2022-12-24T21:46:55.414Z,20.45
2022-12-24T21:49:54.078Z,20.33
2022-12-24T21:52:26.601Z,20.39
2022-12-24T21:54:58.151Z,20.39
2022-12-24T21:57:53.462Z,20.47
2022-12-24T22:00:24.704Z,20.40
2022-12-24T22:02:58.123Z,20.39
2022-12-24T22:05:29.921Z,20.34
2022-12-24T22:08:16.680Z,20.33
2022-12-24T22:11:07.103Z,20.33
2022-12-24T22:13:35.844Z,20.35
2022-12-24T22:16:04.865Z,20.37
2022-12-24T22:18:31.987Z,20.30
2022-12-24T22:21:02.422Z,20.07
2022-12-24T22:23:41.927Z,20.18
2022-12-24T22:26:14.329Z,20.18
2022-12-24T22:28:41.809Z,20.07
2022-12-24T22:31:20.096Z,20.15
2022-12-24T22:34:04.158Z,20.14
2022-12-24T22:36:47.594Z,20.15
2022-12-24T22:39:33.377Z,20.12
2022-12-24T22:42:02.578Z,20.11
2022-12-24T22:44:32.268Z,20.12
2022-12-24T22:47:01.280Z,20.11
2022-12-24T22:49:31.984Z,20.00
2022-12-24T22:52:06.018Z,20.08
2022-12-24T22:54:35.626Z,20.11
2022-12-24T22:57:14.203Z,20.10
2022-12-24T23:02:37.875Z,20.02
2022-12-24T23:05:26.438Z,20.05
2022-12-24T23:08:03.088Z,20.11
2022-12-24T23:10:35.004Z,20.08
2022-12-24T23:13:20.977Z,19.94
2022-12-24T23:15:50.330Z,19.93
2022-12-24T23:18:22.949Z,19.97
2022-12-24T23:20:52.133Z,20.00
2022-12-24T23:23:36.453Z,20.02
2022-12-24T23:26:10.463Z,19.86
2022-12-24T23:28:38.470Z,19.90
2022-12-24T23:31:08.124Z,19.88
2022-12-24T23:33:40.586Z,19.90
2022-12-24T23:36:09.518Z,19.90
2022-12-24T23:38:37.490Z,19.89
2022-12-24T23:41:08.294Z,19.83
2022-12-24T23:43:35.609Z,19.83
2022-12-24T23:46:08.252Z,19.82
2022-12-24T23:48:37.821Z,19.81
2022-12-24T23:51:06.911Z,19.78
2022-12-24T23:53:38.729Z,19.74
2022-12-24T23:56:07.405Z,19.73
2022-12-24T23:58:39.977Z,19.79
